Create Custom Reports and Graphics: Custom Report

Alpine-Summit 8643' (Ward Mt.)

Current Conditions

11/26/20 4:15 AM (-08:00)
Updated Every 15 Minutes
Temp 16.5 °F   9.0
RH 93 %   2
Wet Bulb 16.0 °F   8.7
Dew Pt 14.9 °F   8.6
Wind Spd 75.0 mph   25.6
Wind Dir NE | 42 °
Wind Gust 92.5 mph   35.9
WindChill -11.1 °F   16.5

Last 6 Hours

Alpine-Summit 8643' (Ward Mt.)

15 Minute Data | America/Los_Angeles
as of 11/26/20 4:18 AM PST
Date & Time Temp (°F) RH (%) Dew Pt (°F) Wet Bulb (°F) Wind Dir (°) Wind Spd (mph) Wind Gust (mph) WindChill (°F)
11/26/20 - 0415 16.5 93 14.9 16.0 NE | 42 75.0 92.5 -11.1
11/26/20 - 0400 16.6 93 15.1 16.1 NE | 44 71.8 87.9 -10.4
11/26/20 - 0345 16.8 93 15.2 16.3 NE | 52 64.3 74.7 -9.2
11/26/20 - 0330 16.9 94 15.4 16.5 ENE | 73 59.4 72.3 -8.6
11/26/20 - 0315 16.7 94 15.2 16.3 E | 100 54.7 68.4 -8.3
11/26/20 - 0300 15.9 94 14.4 15.5 ESE | 116 48.3 58.6 -8.2
11/26/20 - 0245 15.8 94 14.3 15.3 ESE | 120 44.3 55.9 -7.6
11/26/20 - 0230 16.4 93 14.8 15.9 ESE | 123 45.5 56.7 -7.3
11/26/20 - 0215 15.8 94 14.3 15.4 SE | 126 40.8 47.8 -7.0
11/26/20 - 0200 15.8 93 14.3 15.4 SE | 126 40.1 49.1 -6.8
11/26/20 - 0145 15.6 94 14.1 15.1 SE | 125 38.3 48.3 -6.7
11/26/20 - 0130 15.5 94 14.0 15.0 SE | 125 42.4 51.2 -7.7
11/26/20 - 0115 15.4 94 14.0 15.0 SE | 125 38.5 47.6 -6.7
11/26/20 - 0100 15.8 92 13.9 15.2 SE | 125 39.6 47.9 -6.3
11/26/20 - 0045 16.1 93 14.5 15.6 SE | 124 42.6 49.0 -6.9
11/26/20 - 0030 16.1 94 14.7 15.7 SE | 124 38.3 43.0 -5.9
11/26/20 - 0015 16.2 94 14.8 15.7 ESE | 123 35.4 39.4 -5.1
11/26/20 - 0000 16.4 94 14.9 15.9 ESE | 123 35.5 41.9 -5.0
11/25/20 - 2345 16.3 94 14.8 15.8 ESE | 122 38.5 43.9 -5.5
11/25/20 - 2330 16.5 93 14.9 16.0 ESE | 122 39.0 45.1 -5.3
11/25/20 - 2315 16.8 93 15.1 16.2 ESE | 121 36.7 40.9 -4.5
11/25/20 - 2300 17.1 92 15.2 16.5 ESE | 121 35.2 40.2 -3.8
11/25/20 - 2245 17.4 91 15.3 16.7 ESE | 121 36.7 43.5 -3.9
11/25/20 - 2230 17.4 91 15.3 16.8 ESE | 120 37.2 42.4 -3.9
Max 17.4 94 15.4 16.8 - 75.0 92.5 -3.8
Avg 16.3 93 14.7 15.8 - 44.9 53.7 -6.7
Min 15.4 91 13.9 15.0 - 35.2 39.4 -11.1

Last 30 Days

Alpine-Summit 8643' (Ward Mt.)

Daily Data | America/Los_Angeles
as of 11/26/20 4:18 AM PST
Date Daily Max Temp (°F) Time of Max Temp Daily Min Temp (°F) Time of Min Temp Wind Spd (mph) Daily Max Wind (mph) Max RH (%) Min RH (%) Wet Bulb (°F)
11/25/20 31.6 1344 16.3 2346 38.5 69.1 97 71 23.9
11/24/20 48.8 1517 25.1 0000 20.4 56.7 94 22 29.0
11/23/20 39.5 1535 24.4 0251 16.9 43.8 97 47 25.9
11/22/20 42.5 1416 24.5 2240 28.5 75.5 96 38 28.2
11/21/20 38.8 1358 25.7 0648 12.9 26.8 93 38 28.3
11/20/20 34.0 1356 20.7 0226 4.5 16.2 100 92 26.9
11/19/20 31.6 1458 20.6 0543 17.1 70.4 100 96 23.8
11/18/20 31.8 1051 25.2 2359 59.6 116.6 100 98 28.4
11/17/20 37.1 1348 27.5 2340 46.1 99.8 98 49 28.6
11/16/20 56.2 1530 44.0 2317 32.7 90.5 32 20 35.2
11/15/20 41.4 1545 26.8 0010 33.7 56.8 83 29 28.3
11/14/20 32.6 1505 18.4 0545 31.5 65.9 98 37 23.1
11/13/20 29.5 1942 23.7 0941 66.3 114.5 99 50 25.0
11/12/20 36.6 1459 25.4 2359 26.1 50.6 56 11 21.9
11/11/20 34.9 1425 23.4 0648 23.0 46.3 64 9 21.1
11/10/20 35.1 1431 24.3 2319 29.4 44.4 86 46 24.7
11/9/20 26.3 1454 10.8 0137 17.6 39.8 96 92 16.0
11/8/20 20.6 0002 11.2 2357 28.5 81.3 96 92 14.4
11/7/20 22.0 1014 16.2 0605 28.6 74.2 97 89 19.1
11/6/20 42.0 0001 18.8 2354 38.5 79.9 99 47 27.1
11/5/20 61.8 1401 41.9 2337 25.8 44.0 48 15 38.0
11/4/20 49.3 2210 47.4 2102 18.7 23.6 34 26 35.6
11/3/20 46.5 2306 45.4 2207 17.2 21.1 41 31 34.9
11/2/20 65.0 1352 46.3 2150 7.0 31.5 30 12 36.7
11/1/20 62.6 1351 47.6 2359 8.6 27.2 25 12 36.0
10/31/20 64.8 1650 45.1 0817 10.0 26.8 28 16 36.3
10/30/20 59.7 1527 46.3 0109 13.2 34.0 30 9 34.6
10/29/20 62.8 1559 44.3 0723 19.2 30.2 24 7 33.1
10/28/20 60.2 1546 39.5 0034 29.3 55.9 44 8 33.2
10/27/20 48.3 1633 29.5 0342 62.7 100.5 64 23 29.6
Max 65.0 - 47.6 - 66.3 116.6 100 98 38.0
Avg - - - - 27.1 - - - 28.2
Min 20.6 - 10.8 - 4.5 16.2 24 7 14.4
Calm: 0.0%
Calm: 0.0%